sensor_id;sensor_type;location;lat;lon;timestamp;pressure;altitude;pressure_sealevel;temperature;humidity
3464;BME280;3551;41.578;24.706;2022-07-22T00:01:46;91427.91;;;19.63;67.51
3464;BME280;3551;41.578;24.706;2022-07-22T00:04:13;91428.53;;;19.67;66.75
3464;BME280;3551;41.578;24.706;2022-07-22T00:06:40;91423.94;;;19.55;67.10
3464;BME280;3551;41.578;24.706;2022-07-22T00:09:06;91424.13;;;19.61;67.20
3464;BME280;3551;41.578;24.706;2022-07-22T00:11:33;91435.59;;;19.65;66.64
3464;BME280;3551;41.578;24.706;2022-07-22T00:14:00;91429.13;;;19.50;67.99
3464;BME280;3551;41.578;24.706;2022-07-22T00:16:26;91431.13;;;19.71;66.91
3464;BME280;3551;41.578;24.706;2022-07-22T00:18:55;91431.00;;;19.75;66.89
3464;BME280;3551;41.578;24.706;2022-07-22T00:21:22;91429.22;;;19.59;67.16
3464;BME280;3551;41.578;24.706;2022-07-22T00:23:48;91430.75;;;19.82;67.36
3464;BME280;3551;41.578;24.706;2022-07-22T00:26:15;91424.84;;;19.61;67.25
3464;BME280;3551;41.578;24.706;2022-07-22T00:28:42;91430.00;;;19.47;67.68
3464;BME280;3551;41.578;24.706;2022-07-22T00:31:08;91433.44;;;19.60;66.70
3464;BME280;3551;41.578;24.706;2022-07-22T00:33:35;91427.16;;;19.29;68.12
3464;BME280;3551;41.578;24.706;2022-07-22T00:36:04;91435.78;;;19.36;68.24
3464;BME280;3551;41.578;24.706;2022-07-22T00:38:31;91433.88;;;19.58;67.09
3464;BME280;3551;41.578;24.706;2022-07-22T00:40:58;91440.31;;;19.74;66.57
3464;BME280;3551;41.578;24.706;2022-07-22T00:43:24;91432.88;;;19.65;66.48
3464;BME280;3551;41.578;24.706;2022-07-22T00:45:51;91433.44;;;19.60;66.20
3464;BME280;3551;41.578;24.706;2022-07-22T00:48:18;91438.75;;;19.29;67.57
3464;BME280;3551;41.578;24.706;2022-07-22T00:50:45;91442.09;;;19.33;67.60
3464;BME280;3551;41.578;24.706;2022-07-22T00:53:13;91440.38;;;19.39;67.67
3464;BME280;3551;41.578;24.706;2022-07-22T00:55:39;91439.59;;;18.92;69.42
3464;BME280;3551;41.578;24.706;2022-07-22T00:58:06;91443.00;;;19.18;68.87
3464;BME280;3551;41.578;24.706;2022-07-22T01:00:33;91437.78;;;19.23;68.46
3464;BME280;3551;41.578;24.706;2022-07-22T01:03:00;91444.41;;;19.22;68.29
3464;BME280;3551;41.578;24.706;2022-07-22T01:05:27;91442.78;;;19.12;68.95
3464;BME280;3551;41.578;24.706;2022-07-22T01:07:53;91441.22;;;19.02;69.57
3464;BME280;3551;41.578;24.706;2022-07-22T01:10:22;91431.22;;;19.12;69.39
3464;BME280;3551;41.578;24.706;2022-07-22T01:12:48;91437.16;;;19.19;68.84
3464;BME280;3551;41.578;24.706;2022-07-22T01:15:15;91434.59;;;19.37;68.53
3464;BME280;3551;41.578;24.706;2022-07-22T01:17:42;91434.72;;;19.46;68.29
3464;BME280;3551;41.578;24.706;2022-07-22T01:20:10;91441.97;;;19.37;68.07
3464;BME280;3551;41.578;24.706;2022-07-22T01:22:37;91440.41;;;19.14;69.07
3464;BME280;3551;41.578;24.706;2022-07-22T01:25:04;91428.22;;;18.72;71.01
3464;BME280;3551;41.578;24.706;2022-07-22T01:27:31;91422.41;;;18.73;71.59
3464;BME280;3551;41.578;24.706;2022-07-22T01:29:58;91428.69;;;18.58;72.13
3464;BME280;3551;41.578;24.706;2022-07-22T01:32:25;91419.31;;;18.96;71.36
3464;BME280;3551;41.578;24.706;2022-07-22T01:34:52;91429.13;;;19.16;70.36
3464;BME280;3551;41.578;24.706;2022-07-22T01:37:20;91430.06;;;19.00;70.64
3464;BME280;3551;41.578;24.706;2022-07-22T01:39:47;91426.47;;;18.90;70.37
3464;BME280;3551;41.578;24.706;2022-07-22T01:42:14;91426.78;;;18.92;70.35
3464;BME280;3551;41.578;24.706;2022-07-22T01:44:41;91421.38;;;18.80;71.74
3464;BME280;3551;41.578;24.706;2022-07-22T01:47:08;91421.63;;;18.85;70.74
3464;BME280;3551;41.578;24.706;2022-07-22T01:49:35;91416.88;;;18.64;72.16
3464;BME280;3551;41.578;24.706;2022-07-22T01:52:02;91414.06;;;18.68;71.98
3464;BME280;3551;41.578;24.706;2022-07-22T01:54:30;91409.50;;;18.52;72.59
3464;BME280;3551;41.578;24.706;2022-07-22T01:56:57;91413.50;;;18.47;72.66
3464;BME280;3551;41.578;24.706;2022-07-22T01:59:24;91413.94;;;18.33;72.99
3464;BME280;3551;41.578;24.706;2022-07-22T02:01:51;91405.72;;;18.49;72.69
3464;BME280;3551;41.578;24.706;2022-07-22T02:04:18;91410.47;;;18.33;73.31
3464;BME280;3551;41.578;24.706;2022-07-22T02:06:44;91405.03;;;18.08;74.57
3464;BME280;3551;41.578;24.706;2022-07-22T02:09:11;91412.94;;;18.27;74.13
3464;BME280;3551;41.578;24.706;2022-07-22T02:11:40;91419.31;;;17.83;76.01
3464;BME280;3551;41.578;24.706;2022-07-22T02:14:06;91403.72;;;17.87;76.07
3464;BME280;3551;41.578;24.706;2022-07-22T02:16:33;91408.19;;;18.19;74.70
3464;BME280;3551;41.578;24.706;2022-07-22T02:19:00;91406.25;;;18.19;74.17
3464;BME280;3551;41.578;24.706;2022-07-22T02:21:27;91417.72;;;18.36;73.69
3464;BME280;3551;41.578;24.706;2022-07-22T02:23:53;91404.72;;;18.31;73.37
3464;BME280;3551;41.578;24.706;2022-07-22T02:26:20;91413.94;;;18.33;73.28
3464;BME280;3551;41.578;24.706;2022-07-22T02:28:48;91409.38;;;18.18;74.25
3464;BME280;3551;41.578;24.706;2022-07-22T02:31:15;91411.00;;;18.28;74.02
3464;BME280;3551;41.578;24.706;2022-07-22T02:33:42;91410.38;;;18.49;72.79
3464;BME280;3551;41.578;24.706;2022-07-22T02:36:08;91406.66;;;18.30;73.68
3464;BME280;3551;41.578;24.706;2022-07-22T02:38:36;91406.69;;;18.18;74.17
3464;BME280;3551;41.578;24.706;2022-07-22T02:41:02;91416.22;;;18.35;73.64
3464;BME280;3551;41.578;24.706;2022-07-22T02:43:29;91407.22;;;18.38;73.69
3464;BME280;3551;41.578;24.706;2022-07-22T02:45:57;91404.63;;;18.34;73.49
3464;BME280;3551;41.578;24.706;2022-07-22T02:48:24;91409.69;;;17.94;75.38
3464;BME280;3551;41.578;24.706;2022-07-22T02:50:51;91407.63;;;17.98;75.70
3464;BME280;3551;41.578;24.706;2022-07-22T02:53:19;91409.47;;;18.39;73.64
3464;BME280;3551;41.578;24.706;2022-07-22T02:55:45;91411.34;;;18.17;74.13
3464;BME280;3551;41.578;24.706;2022-07-22T02:58:12;91407.44;;;18.06;75.10
3464;BME280;3551;41.578;24.706;2022-07-22T03:00:39;91406.34;;;18.16;74.15
3464;BME280;3551;41.578;24.706;2022-07-22T03:03:07;91404.84;;;18.40;73.72
3464;BME280;3551;41.578;24.706;2022-07-22T03:05:34;91410.25;;;18.15;74.29
3464;BME280;3551;41.578;24.706;2022-07-22T03:08:01;91411.72;;;17.90;74.80
3464;BME280;3551;41.578;24.706;2022-07-22T03:10:27;91409.34;;;17.92;74.99
3464;BME280;3551;41.578;24.706;2022-07-22T03:12:54;91413.13;;;17.95;75.49
3464;BME280;3551;41.578;24.706;2022-07-22T03:15:21;91418.88;;;17.84;76.03
3464;BME280;3551;41.578;24.706;2022-07-22T03:17:48;91408.81;;;17.85;75.86
3464;BME280;3551;41.578;24.706;2022-07-22T03:20:16;91419.34;;;18.21;74.93
3464;BME280;3551;41.578;24.706;2022-07-22T03:22:43;91417.16;;;17.90;75.04
3464;BME280;3551;41.578;24.706;2022-07-22T03:25:09;91407.56;;;17.61;76.95
3464;BME280;3551;41.578;24.706;2022-07-22T03:27:36;91407.16;;;17.75;76.27
3464;BME280;3551;41.578;24.706;2022-07-22T03:30:03;91408.13;;;17.81;75.32
3464;BME280;3551;41.578;24.706;2022-07-22T03:32:30;91413.19;;;18.20;73.55
3464;BME280;3551;41.578;24.706;2022-07-22T03:34:57;91413.81;;;18.12;73.89
3464;BME280;3551;41.578;24.706;2022-07-22T03:37:25;91415.53;;;17.80;75.69
3464;BME280;3551;41.578;24.706;2022-07-22T03:39:51;91409.56;;;17.85;75.37
3464;BME280;3551;41.578;24.706;2022-07-22T03:42:18;91408.97;;;18.07;74.99
3464;BME280;3551;41.578;24.706;2022-07-22T03:44:45;91417.41;;;18.21;74.21
3464;BME280;3551;41.578;24.706;2022-07-22T03:47:12;91409.81;;;18.16;74.49
3464;BME280;3551;41.578;24.706;2022-07-22T03:49:43;91418.03;;;18.25;74.11
3464;BME280;3551;41.578;24.706;2022-07-22T03:52:10;91413.94;;;18.21;74.33
3464;BME280;3551;41.578;24.706;2022-07-22T03:54:39;91414.69;;;18.21;74.33
3464;BME280;3551;41.578;24.706;2022-07-22T03:57:06;91414.16;;;18.26;74.15
3464;BME280;3551;41.578;24.706;2022-07-22T03:59:33;91421.41;;;18.17;75.37
3464;BME280;3551;41.578;24.706;2022-07-22T04:02:00;91416.44;;;18.15;75.56
3464;BME280;3551;41.578;24.706;2022-07-22T04:04:27;91424.78;;;18.21;75.35
3464;BME280;3551;41.578;24.706;2022-07-22T04:06:54;91414.78;;;18.30;74.63
3464;BME280;3551;41.578;24.706;2022-07-22T04:09:22;91425.31;;;18.41;74.21
3464;BME280;3551;41.578;24.706;2022-07-22T04:11:50;91415.16;;;18.58;73.25
3464;BME280;3551;41.578;24.706;2022-07-22T04:14:18;91420.88;;;18.72;72.71
3464;BME280;3551;41.578;24.706;2022-07-22T04:16:45;91413.94;;;18.71;72.37
3464;BME280;3551;41.578;24.706;2022-07-22T04:19:12;91416.41;;;18.91;71.36
3464;BME280;3551;41.578;24.706;2022-07-22T04:21:39;91413.78;;;19.00;71.09
3464;BME280;3551;41.578;24.706;2022-07-22T04:24:06;91417.63;;;18.65;73.84
3464;BME280;3551;41.578;24.706;2022-07-22T04:26:33;91411.31;;;18.80;73.70
3464;BME280;3551;41.578;24.706;2022-07-22T04:29:02;91409.53;;;19.12;72.29
3464;BME280;3551;41.578;24.706;2022-07-22T04:31:29;91408.78;;;19.45;71.13
3464;BME280;3551;41.578;24.706;2022-07-22T04:33:56;91420.72;;;20.22;68.66
3464;BME280;3551;41.578;24.706;2022-07-22T04:36:23;91416.03;;;20.93;65.54
3464;BME280;3551;41.578;24.706;2022-07-22T04:38:50;91415.81;;;21.64;61.93
3464;BME280;3551;41.578;24.706;2022-07-22T04:41:17;91418.25;;;21.62;61.78
3464;BME280;3551;41.578;24.706;2022-07-22T04:43:43;91417.66;;;22.03;61.38
3464;BME280;3551;41.578;24.706;2022-07-22T04:46:12;91416.84;;;22.72;60.28
3464;BME280;3551;41.578;24.706;2022-07-22T04:48:38;91422.28;;;22.72;58.55
3464;BME280;3551;41.578;24.706;2022-07-22T04:51:05;91417.75;;;23.02;57.21
3464;BME280;3551;41.578;24.706;2022-07-22T04:53:32;91419.34;;;22.93;56.74
3464;BME280;3551;41.578;24.706;2022-07-22T04:55:59;91418.56;;;22.93;57.81
3464;BME280;3551;41.578;24.706;2022-07-22T04:58:25;91425.63;;;23.56;57.33
3464;BME280;3551;41.578;24.706;2022-07-22T05:01:01;91420.81;;;23.89;56.21
3464;BME280;3551;41.578;24.706;2022-07-22T05:03:29;91420.84;;;23.66;56.81
3464;BME280;3551;41.578;24.706;2022-07-22T05:05:56;91421.00;;;23.86;56.49
3464;BME280;3551;41.578;24.706;2022-07-22T05:08:23;91419.00;;;24.25;54.29
3464;BME280;3551;41.578;24.706;2022-07-22T05:10:49;91416.25;;;24.54;53.24
3464;BME280;3551;41.578;24.706;2022-07-22T05:13:16;91420.53;;;25.04;52.19
3464;BME280;3551;41.578;24.706;2022-07-22T05:15:43;91421.66;;;25.12;52.07
3464;BME280;3551;41.578;24.706;2022-07-22T05:18:09;91413.00;;;25.54;50.53
3464;BME280;3551;41.578;24.706;2022-07-22T05:20:38;91414.38;;;25.85;48.84
3464;BME280;3551;41.578;24.706;2022-07-22T05:23:04;91419.97;;;26.16;48.21
3464;BME280;3551;41.578;24.706;2022-07-22T05:25:31;91416.63;;;26.06;47.89
3464;BME280;3551;41.578;24.706;2022-07-22T05:28:00;91416.25;;;26.45;47.18
3464;BME280;3551;41.578;24.706;2022-07-22T05:30:27;91411.63;;;26.56;47.50
3464;BME280;3551;41.578;24.706;2022-07-22T05:32:54;91408.75;;;26.71;47.32
3464;BME280;3551;41.578;24.706;2022-07-22T05:35:20;91415.28;;;27.05;47.01
3464;BME280;3551;41.578;24.706;2022-07-22T05:37:48;91410.47;;;27.31;45.05
3464;BME280;3551;41.578;24.706;2022-07-22T05:40:15;91410.75;;;27.38;44.89
3464;BME280;3551;41.578;24.706;2022-07-22T05:42:42;91414.91;;;27.23;45.37
3464;BME280;3551;41.578;24.706;2022-07-22T05:45:09;91407.69;;;27.73;45.20
3464;BME280;3551;41.578;24.706;2022-07-22T05:47:36;91413.50;;;27.92;44.39
3464;BME280;3551;41.578;24.706;2022-07-22T05:50:03;91410.13;;;28.14;43.67
3464;BME280;3551;41.578;24.706;2022-07-22T05:52:30;91406.72;;;27.87;44.07
3464;BME280;3551;41.578;24.706;2022-07-22T05:55:00;91411.13;;;28.11;43.95
3464;BME280;3551;41.578;24.706;2022-07-22T05:57:27;91410.41;;;28.43;42.05
3464;BME280;3551;41.578;24.706;2022-07-22T05:59:53;91406.94;;;28.60;40.36
3464;BME280;3551;41.578;24.706;2022-07-22T06:02:20;91410.69;;;28.45;42.00
3464;BME280;3551;41.578;24.706;2022-07-22T06:04:47;91406.19;;;28.59;42.02
3464;BME280;3551;41.578;24.706;2022-07-22T06:07:13;91404.97;;;28.71;42.04
3464;BME280;3551;41.578;24.706;2022-07-22T06:09:40;91406.50;;;28.78;41.99
3464;BME280;3551;41.578;24.706;2022-07-22T06:12:10;91404.72;;;29.36;39.68
3464;BME280;3551;41.578;24.706;2022-07-22T06:14:36;91401.41;;;29.43;40.16
3464;BME280;3551;41.578;24.706;2022-07-22T06:17:03;91394.69;;;29.38;41.59
3464;BME280;3551;41.578;24.706;2022-07-22T06:19:30;91397.94;;;29.37;41.05
3464;BME280;3551;41.578;24.706;2022-07-22T06:21:57;91403.69;;;29.28;42.84
3464;BME280;3551;41.578;24.706;2022-07-22T06:24:24;91400.69;;;29.37;41.94
3464;BME280;3551;41.578;24.706;2022-07-22T06:26:51;91392.56;;;29.72;41.05
3464;BME280;3551;41.578;24.706;2022-07-22T06:29:19;91389.53;;;29.87;39.59
3464;BME280;3551;41.578;24.706;2022-07-22T06:31:46;91386.72;;;29.98;40.38
3464;BME280;3551;41.578;24.706;2022-07-22T06:34:13;91400.38;;;29.68;39.81
3464;BME280;3551;41.578;24.706;2022-07-22T06:36:39;91389.06;;;29.83;40.53
3464;BME280;3551;41.578;24.706;2022-07-22T06:39:06;91390.66;;;30.13;39.79
3464;BME280;3551;41.578;24.706;2022-07-22T06:41:33;91394.31;;;30.38;39.10
3464;BME280;3551;41.578;24.706;2022-07-22T06:44:00;91391.72;;;30.51;39.02
3464;BME280;3551;41.578;24.706;2022-07-22T06:46:28;91392.69;;;30.89;38.48
3464;BME280;3551;41.578;24.706;2022-07-22T06:48:54;91388.13;;;30.97;38.83
3464;BME280;3551;41.578;24.706;2022-07-22T06:51:21;91386.13;;;30.98;37.76
3464;BME280;3551;41.578;24.706;2022-07-22T06:53:48;91392.56;;;31.06;38.71
3464;BME280;3551;41.578;24.706;2022-07-22T06:56:15;91384.38;;;30.95;39.70
3464;BME280;3551;41.578;24.706;2022-07-22T06:58:41;91382.16;;;31.23;38.36
3464;BME280;3551;41.578;24.706;2022-07-22T07:01:08;91380.03;;;31.59;37.57
3464;BME280;3551;41.578;24.706;2022-07-22T07:03:36;91386.59;;;31.80;36.98
3464;BME280;3551;41.578;24.706;2022-07-22T07:06:03;91388.03;;;31.87;36.37
3464;BME280;3551;41.578;24.706;2022-07-22T07:08:30;91382.63;;;31.75;37.38
3464;BME280;3551;41.578;24.706;2022-07-22T07:10:57;91381.63;;;31.73;36.79
3464;BME280;3551;41.578;24.706;2022-07-22T07:13:23;91382.25;;;31.85;37.13
3464;BME280;3551;41.578;24.706;2022-07-22T07:15:50;91376.91;;;31.92;37.81
3464;BME280;3551;41.578;24.706;2022-07-22T07:18:16;91387.47;;;32.12;37.11
3464;BME280;3551;41.578;24.706;2022-07-22T07:20:45;91390.69;;;31.73;38.13
3464;BME280;3551;41.578;24.706;2022-07-22T07:23:11;91385.97;;;31.68;37.05
3464;BME280;3551;41.578;24.706;2022-07-22T07:25:38;91384.72;;;31.69;37.59
3464;BME280;3551;41.578;24.706;2022-07-22T07:28:05;91381.88;;;31.75;37.69
3464;BME280;3551;41.578;24.706;2022-07-22T07:30:32;91382.56;;;31.81;36.87
3464;BME280;3551;41.578;24.706;2022-07-22T07:32:59;91386.22;;;31.89;36.65
3464;BME280;3551;41.578;24.706;2022-07-22T07:35:26;91384.44;;;32.16;36.87
3464;BME280;3551;41.578;24.706;2022-07-22T07:37:54;91386.38;;;31.97;35.40
3464;BME280;3551;41.578;24.706;2022-07-22T07:40:21;91387.19;;;32.16;35.87
3464;BME280;3551;41.578;24.706;2022-07-22T07:42:48;91388.19;;;32.56;36.03
3464;BME280;3551;41.578;24.706;2022-07-22T07:45:15;91386.84;;;32.62;34.85
3464;BME280;3551;41.578;24.706;2022-07-22T07:47:42;91383.91;;;32.55;34.40
3464;BME280;3551;41.578;24.706;2022-07-22T07:50:09;91388.59;;;32.22;34.33
3464;BME280;3551;41.578;24.706;2022-07-22T07:52:37;91388.78;;;32.30;33.53
3464;BME280;3551;41.578;24.706;2022-07-22T07:55:06;91375.13;;;31.70;33.29
3464;BME280;3551;41.578;24.706;2022-07-22T07:57:33;91385.19;;;31.92;33.61
3464;BME280;3551;41.578;24.706;2022-07-22T08:00:00;91390.78;;;32.48;33.40
3464;BME280;3551;41.578;24.706;2022-07-22T08:02:26;91393.84;;;32.82;33.51
3464;BME280;3551;41.578;24.706;2022-07-22T08:04:53;91398.50;;;33.06;32.05
3464;BME280;3551;41.578;24.706;2022-07-22T08:07:19;91395.34;;;33.15;29.18
3464;BME280;3551;41.578;24.706;2022-07-22T08:09:46;91387.28;;;32.98;29.56
3464;BME280;3551;41.578;24.706;2022-07-22T08:12:14;91394.09;;;32.97;28.12
3464;BME280;3551;41.578;24.706;2022-07-22T08:14:41;91391.75;;;33.65;29.82
3464;BME280;3551;41.578;24.706;2022-07-22T08:17:08;91399.25;;;33.51;30.25
3464;BME280;3551;41.578;24.706;2022-07-22T08:19:34;91400.00;;;33.52;29.21
3464;BME280;3551;41.578;24.706;2022-07-22T08:22:01;91401.56;;;33.34;31.03
3464;BME280;3551;41.578;24.706;2022-07-22T08:24:28;91398.97;;;33.10;30.09
3464;BME280;3551;41.578;24.706;2022-07-22T08:26:55;91397.00;;;33.36;29.33
3464;BME280;3551;41.578;24.706;2022-07-22T08:29:23;91397.31;;;33.33;26.53
3464;BME280;3551;41.578;24.706;2022-07-22T08:31:49;91396.78;;;32.71;25.78
3464;BME280;3551;41.578;24.706;2022-07-22T08:34:16;91392.16;;;32.60;26.21
3464;BME280;3551;41.578;24.706;2022-07-22T08:36:43;91391.53;;;32.99;26.76
3464;BME280;3551;41.578;24.706;2022-07-22T08:39:10;91392.09;;;33.42;28.14
3464;BME280;3551;41.578;24.706;2022-07-22T08:41:37;91397.28;;;33.78;25.33
3464;BME280;3551;41.578;24.706;2022-07-22T08:44:05;91401.91;;;34.15;27.06
3464;BME280;3551;41.578;24.706;2022-07-22T08:46:34;91404.25;;;34.24;25.91
3464;BME280;3551;41.578;24.706;2022-07-22T08:49:01;91400.16;;;34.25;27.25
3464;BME280;3551;41.578;24.706;2022-07-22T08:51:28;91403.47;;;33.84;25.55
3464;BME280;3551;41.578;24.706;2022-07-22T08:53:55;91410.84;;;33.81;26.12
3464;BME280;3551;41.578;24.706;2022-07-22T08:56:22;91413.31;;;33.27;28.14
3464;BME280;3551;41.578;24.706;2022-07-22T08:58:48;91408.72;;;32.98;27.74
3464;BME280;3551;41.578;24.706;2022-07-22T09:01:16;91408.06;;;32.36;26.46
3464;BME280;3551;41.578;24.706;2022-07-22T09:03:45;91406.19;;;32.44;27.64
3464;BME280;3551;41.578;24.706;2022-07-22T09:06:13;91395.41;;;32.03;25.79
3464;BME280;3551;41.578;24.706;2022-07-22T09:08:50;91394.38;;;32.62;27.51
3464;BME280;3551;41.578;24.706;2022-07-22T09:11:17;91406.91;;;33.00;28.71
3464;BME280;3551;41.578;24.706;2022-07-22T09:13:45;91406.72;;;33.43;27.61
3464;BME280;3551;41.578;24.706;2022-07-22T09:16:11;91392.88;;;33.56;26.38
3464;BME280;3551;41.578;24.706;2022-07-22T09:18:46;91394.25;;;33.50;29.25
3464;BME280;3551;41.578;24.706;2022-07-22T09:21:13;91400.41;;;33.29;26.89
3464;BME280;3551;41.578;24.706;2022-07-22T09:23:41;91403.56;;;32.89;27.02
3464;BME280;3551;41.578;24.706;2022-07-22T09:26:08;91408.56;;;32.90;27.36
3464;BME280;3551;41.578;24.706;2022-07-22T09:28:35;91401.94;;;32.43;27.30
3464;BME280;3551;41.578;24.706;2022-07-22T09:31:04;91407.25;;;32.41;26.07
3464;BME280;3551;41.578;24.706;2022-07-22T09:33:30;91402.22;;;32.20;26.04
3464;BME280;3551;41.578;24.706;2022-07-22T09:36:02;91396.09;;;32.46;26.08
3464;BME280;3551;41.578;24.706;2022-07-22T09:38:29;91393.78;;;32.50;27.35
3464;BME280;3551;41.578;24.706;2022-07-22T09:40:59;91390.31;;;32.07;26.53
3464;BME280;3551;41.578;24.706;2022-07-22T09:43:27;91391.00;;;32.31;29.20
3464;BME280;3551;41.578;24.706;2022-07-22T09:45:59;91396.09;;;32.65;29.13
3464;BME280;3551;41.578;24.706;2022-07-22T09:48:26;91398.97;;;32.59;27.23
3464;BME280;3551;41.578;24.706;2022-07-22T09:50:53;91396.63;;;32.45;26.24
3464;BME280;3551;41.578;24.706;2022-07-22T09:53:24;91408.22;;;32.24;25.96
3464;BME280;3551;41.578;24.706;2022-07-22T09:55:53;91401.63;;;32.27;27.63
3464;BME280;3551;41.578;24.706;2022-07-22T09:58:20;91402.59;;;32.11;28.67
3464;BME280;3551;41.578;24.706;2022-07-22T10:00:46;91393.72;;;31.94;26.62
3464;BME280;3551;41.578;24.706;2022-07-22T10:03:16;91388.38;;;32.02;28.11
3464;BME280;3551;41.578;24.706;2022-07-22T10:05:43;91405.00;;;32.02;25.97
3464;BME280;3551;41.578;24.706;2022-07-22T10:08:11;91386.22;;;31.16;26.17
3464;BME280;3551;41.578;24.706;2022-07-22T10:10:42;91398.72;;;31.47;26.96
3464;BME280;3551;41.578;24.706;2022-07-22T10:13:09;91400.34;;;31.37;27.69
3464;BME280;3551;41.578;24.706;2022-07-22T10:15:37;91395.53;;;31.13;27.96
3464;BME280;3551;41.578;24.706;2022-07-22T10:18:06;91397.66;;;31.32;26.91
3464;BME280;3551;41.578;24.706;2022-07-22T10:20:34;91394.06;;;31.37;27.88
3464;BME280;3551;41.578;24.706;2022-07-22T10:23:03;91398.56;;;31.40;28.01
3464;BME280;3551;41.578;24.706;2022-07-22T10:25:30;91392.69;;;31.73;29.89
3464;BME280;3551;41.578;24.706;2022-07-22T10:27:59;91399.94;;;31.57;29.05
3464;BME280;3551;41.578;24.706;2022-07-22T10:30:28;91401.06;;;31.67;29.53
3464;BME280;3551;41.578;24.706;2022-07-22T10:33:06;91403.25;;;31.74;29.59
3464;BME280;3551;41.578;24.706;2022-07-22T10:35:34;91394.38;;;31.57;29.44
3464;BME280;3551;41.578;24.706;2022-07-22T10:38:03;91406.03;;;31.74;28.66
3464;BME280;3551;41.578;24.706;2022-07-22T10:40:30;91411.41;;;31.67;26.43
3464;BME280;3551;41.578;24.706;2022-07-22T10:43:11;91399.72;;;31.26;27.28
3464;BME280;3551;41.578;24.706;2022-07-22T10:45:39;91394.06;;;31.37;27.44
3464;BME280;3551;41.578;24.706;2022-07-22T10:48:09;91412.09;;;31.43;26.88
3464;BME280;3551;41.578;24.706;2022-07-22T10:50:46;91400.25;;;31.48;27.41
3464;BME280;3551;41.578;24.706;2022-07-22T10:53:15;91397.59;;;31.07;27.31
3464;BME280;3551;41.578;24.706;2022-07-22T10:58:44;91396.41;;;30.97;28.42
3464;BME280;3551;41.578;24.706;2022-07-22T11:01:12;91395.06;;;31.09;28.11
3464;BME280;3551;41.578;24.706;2022-07-22T11:03:39;91400.16;;;31.30;28.48
3464;BME280;3551;41.578;24.706;2022-07-22T11:06:14;91408.13;;;31.39;27.95
3464;BME280;3551;41.578;24.706;2022-07-22T11:08:41;91402.81;;;31.41;29.52
3464;BME280;3551;41.578;24.706;2022-07-22T11:11:08;91402.91;;;31.30;29.57
3464;BME280;3551;41.578;24.706;2022-07-22T11:13:35;91408.66;;;31.37;27.69
3464;BME280;3551;41.578;24.706;2022-07-22T11:16:17;91404.09;;;31.40;27.10
3464;BME280;3551;41.578;24.706;2022-07-22T11:18:44;91399.50;;;31.48;28.71
3464;BME280;3551;41.578;24.706;2022-07-22T11:21:11;91410.22;;;31.57;28.54
3464;BME280;3551;41.578;24.706;2022-07-22T11:23:39;91401.84;;;31.38;26.21
3464;BME280;3551;41.578;24.706;2022-07-22T11:26:06;91407.13;;;31.36;27.36
3464;BME280;3551;41.578;24.706;2022-07-22T11:28:38;91407.09;;;31.12;27.98
3464;BME280;3551;41.578;24.706;2022-07-22T11:31:05;91409.72;;;31.29;28.31
3464;BME280;3551;41.578;24.706;2022-07-22T11:33:33;91404.63;;;31.08;26.90
3464;BME280;3551;41.578;24.706;2022-07-22T11:36:01;91427.41;;;31.14;27.97
3464;BME280;3551;41.578;24.706;2022-07-22T11:38:38;91411.91;;;31.06;28.86
3464;BME280;3551;41.578;24.706;2022-07-22T11:41:05;91409.41;;;30.73;27.88
3464;BME280;3551;41.578;24.706;2022-07-22T11:43:37;91412.66;;;30.71;27.70
3464;BME280;3551;41.578;24.706;2022-07-22T11:46:04;91410.19;;;30.67;28.56
3464;BME280;3551;41.578;24.706;2022-07-22T11:48:30;91408.88;;;30.74;28.65
3464;BME280;3551;41.578;24.706;2022-07-22T11:51:02;91419.66;;;30.78;26.46
3464;BME280;3551;41.578;24.706;2022-07-22T11:53:29;91417.59;;;30.84;26.71
3464;BME280;3551;41.578;24.706;2022-07-22T11:55:56;91410.88;;;30.79;29.43
3464;BME280;3551;41.578;24.706;2022-07-22T11:58:39;91418.81;;;30.88;26.79
3464;BME280;3551;41.578;24.706;2022-07-22T12:01:07;91410.56;;;30.83;26.98
3464;BME280;3551;41.578;24.706;2022-07-22T12:03:35;91412.50;;;30.58;25.62
3464;BME280;3551;41.578;24.706;2022-07-22T12:06:04;91411.28;;;30.53;26.65
3464;BME280;3551;41.578;24.706;2022-07-22T12:08:33;91410.25;;;30.56;26.81
3464;BME280;3551;41.578;24.706;2022-07-22T12:11:01;91395.72;;;30.56;28.58
3464;BME280;3551;41.578;24.706;2022-07-22T12:13:28;91403.03;;;30.48;27.51
3464;BME280;3551;41.578;24.706;2022-07-22T12:15:55;91398.53;;;30.45;28.64
3464;BME280;3551;41.578;24.706;2022-07-22T12:18:23;91397.75;;;30.50;29.13
3464;BME280;3551;41.578;24.706;2022-07-22T12:20:51;91394.06;;;30.31;30.43
3464;BME280;3551;41.578;24.706;2022-07-22T12:23:20;91393.81;;;30.34;26.90
3464;BME280;3551;41.578;24.706;2022-07-22T12:25:51;91399.69;;;30.14;27.25
3464;BME280;3551;41.578;24.706;2022-07-22T12:28:20;91397.13;;;30.22;26.94
3464;BME280;3551;41.578;24.706;2022-07-22T12:30:47;91395.84;;;30.28;25.71
3464;BME280;3551;41.578;24.706;2022-07-22T12:33:18;91398.41;;;30.21;26.50
3464;BME280;3551;41.578;24.706;2022-07-22T12:35:44;91391.66;;;30.16;26.68
3464;BME280;3551;41.578;24.706;2022-07-22T12:38:25;91395.69;;;30.09;27.10
3464;BME280;3551;41.578;24.706;2022-07-22T12:40:53;91395.47;;;30.07;25.61
3464;BME280;3551;41.578;24.706;2022-07-22T12:43:23;91404.03;;;29.93;28.55
3464;BME280;3551;41.578;24.706;2022-07-22T12:45:51;91392.28;;;29.87;28.92
3464;BME280;3551;41.578;24.706;2022-07-22T12:48:18;91404.31;;;29.89;26.54
3464;BME280;3551;41.578;24.706;2022-07-22T12:50:54;91402.03;;;29.93;26.03
3464;BME280;3551;41.578;24.706;2022-07-22T12:53:21;91402.31;;;29.90;26.44
3464;BME280;3551;41.578;24.706;2022-07-22T12:55:50;91390.28;;;29.87;27.51
3464;BME280;3551;41.578;24.706;2022-07-22T12:58:17;91396.81;;;29.79;28.80
3464;BME280;3551;41.578;24.706;2022-07-22T13:00:45;91394.31;;;29.81;30.12
3464;BME280;3551;41.578;24.706;2022-07-22T13:03:12;91393.38;;;29.56;29.60
3464;BME280;3551;41.578;24.706;2022-07-22T13:05:39;91386.16;;;29.47;29.42
3464;BME280;3551;41.578;24.706;2022-07-22T13:08:06;91399.88;;;29.58;29.26
3464;BME280;3551;41.578;24.706;2022-07-22T13:10:33;91400.69;;;29.31;29.56
3464;BME280;3551;41.578;24.706;2022-07-22T13:13:09;91398.44;;;29.41;28.89
3464;BME280;3551;41.578;24.706;2022-07-22T13:15:37;91387.44;;;29.24;32.01